A80 TRACON Summary / KATL TAF
ATL TRACON Summary:
Scattered showers are beginning to form over NW GA and thunderstorms will increase after 17z. ATL will have a likely shot at convection between 18-21z. Cells will move to the northeast at 20-30kts. Expect low-VFR to patchy MVFR ceilings with TCU through the afternoon. Surface winds will be southwest at 8-10kts and gusty with convection. Flight hazards in the TRACON airspace outside convection: None expected.

Updated: 5/01/2016 12:40 PM
ATL Terminal Aerodrome Forecast:

FTUS80 KATL 011939 AAA
KATL 011938Z 0120/0224 21009KT P6SM VCSH SCT030 BKN050
      TEMPO 0120/0123 VRB10G20KT 4SM TSRA BR BKN025CB
     FM012300 23008KT P6SM VCSH OVC040
     FM020200 24005KT P6SM SCT060 BKN250
     FM021200 22006KT P6SM SCT030 BKN150
     FM021500 22008KT P6SM SCT040 BKN150 PROB30 0219/0223 4SM TSRA
      BR BKN025CB
ATL TRACON Area Remark:
SCATTERED TS EXPECTED ALL QUADS UNTIL 22z.
Convective Gate Forecast / Icing Gate Forecast / Vertical Wind Profile (click on image to enlarge)
Convective Gate Forecast
Icing Gate Forecast
AIRMETs & SIGMETS/ Southeast Radar loop / Satellite Image (click on image to enlarge)

Southeast Radar Loop

 



USA.gov is the U.S. government's official web portal to all federal, state and local government web resources and services.